sensor_id;sensor_type;location;lat;lon;timestamp;P1;durP1;ratioP1;P2;durP2;ratioP2
67429;SDS011;54298;52.076;5.264;2023-04-01T00:03:01;36.81;;;15.2;;
67429;SDS011;54298;52.076;5.264;2023-04-01T00:04:38;38.9;;;14.8;;
67429;SDS011;54298;52.076;5.264;2023-04-01T00:06:15;38.9;;;14.8;;
67429;SDS011;54298;52.076;5.264;2023-04-01T00:07:53;41.9;;;15.4;;
67429;SDS011;54298;52.076;5.264;2023-04-01T00:11:05;43.2;;;15.6;;
67429;SDS011;54298;52.076;5.264;2023-04-01T00:12:41;43.1;;;14.7;;
67429;SDS011;54298;52.076;5.264;2023-04-01T00:14:18;44.2;;;15.8;;
67429;SDS011;54298;52.076;5.264;2023-04-01T00:17:32;41.9;;;14.8;;
67429;SDS011;54298;52.076;5.264;2023-04-01T00:19:08;40.1;;;15.6;;
67429;SDS011;54298;52.076;5.264;2023-04-01T00:20:44;44.6;;;16.0;;
67429;SDS011;54298;52.076;5.264;2023-04-01T00:23:59;39.81;;;16.2;;
67429;SDS011;54298;52.076;5.264;2023-04-01T00:25:35;47.7;;;20.11;;
67429;SDS011;54298;52.076;5.264;2023-04-01T00:27:11;40.1;;;16.7;;
67429;SDS011;54298;52.076;5.264;2023-04-01T00:28:48;42.3;;;19.8;;
67429;SDS011;54298;52.076;5.264;2023-04-01T00:32:01;37.21;;;18.7;;
67429;SDS011;54298;52.076;5.264;2023-04-01T00:33:37;43.3;;;20.8;;
67429;SDS011;54298;52.076;5.264;2023-04-01T00:35:14;44.3;;;23.1;;
67429;SDS011;54298;52.076;5.264;2023-04-01T00:38:28;47.8;;;23.5;;
67429;SDS011;54298;52.076;5.264;2023-04-01T00:40:05;44.4;;;22.2;;
67429;SDS011;54298;52.076;5.264;2023-04-01T00:42:00;44.8;;;24.0;;
67429;SDS011;54298;52.076;5.264;2023-04-01T00:43:38;44.5;;;23.7;;
67429;SDS011;54298;52.076;5.264;2023-04-01T00:47:05;40.81;;;23.7;;
67429;SDS011;54298;52.076;5.264;2023-04-01T00:48:41;46.2;;;23.4;;
67429;SDS011;54298;52.076;5.264;2023-04-01T00:50:21;47.9;;;23.2;;
67429;SDS011;54298;52.076;5.264;2023-04-01T00:52:01;50.7;;;23.7;;
67429;SDS011;54298;52.076;5.264;2023-04-01T00:55:20;44.2;;;23.6;;
67429;SDS011;54298;52.076;5.264;2023-04-01T00:56:59;44.0;;;23.3;;
67429;SDS011;54298;52.076;5.264;2023-04-01T00:58:40;48.0;;;24.3;;
67429;SDS011;54298;52.076;5.264;2023-04-01T01:00:20;43.6;;;23.4;;
67429;SDS011;54298;52.076;5.264;2023-04-01T01:03:32;44.9;;;22.6;;
67429;SDS011;54298;52.076;5.264;2023-04-01T01:05:08;46.5;;;23.6;;
67429;SDS011;54298;52.076;5.264;2023-04-01T01:06:49;43.8;;;22.6;;
67429;SDS011;54298;52.076;5.264;2023-04-01T01:08:39;44.6;;;24.8;;
67429;SDS011;54298;52.076;5.264;2023-04-01T01:10:38;42.1;;;21.5;;
67429;SDS011;54298;52.076;5.264;2023-04-01T01:13:56;41.9;;;22.0;;
67429;SDS011;54298;52.076;5.264;2023-04-01T01:15:41;37.71;;;20.7;;
67429;SDS011;54298;52.076;5.264;2023-04-01T01:17:26;44.1;;;24.1;;
67429;SDS011;54298;52.076;5.264;2023-04-01T01:19:19;36.6;;;20.11;;
67429;SDS011;54298;52.076;5.264;2023-04-01T01:21:52;39.0;;;20.2;;
67429;SDS011;54298;52.076;5.264;2023-04-01T01:23:58;33.0;;;20.6;;
67429;SDS011;54298;52.076;5.264;2023-04-01T01:26:48;33.0;;;19.3;;
67429;SDS011;54298;52.076;5.264;2023-04-01T01:28:37;32.0;;;18.41;;
67429;SDS011;54298;52.076;5.264;2023-04-01T01:30:34;32.1;;;18.41;;
67429;SDS011;54298;52.076;5.264;2023-04-01T01:32:21;27.3;;;16.61;;
67429;SDS011;54298;52.076;5.264;2023-04-01T01:35:14;26.5;;;16.0;;
67429;SDS011;54298;52.076;5.264;2023-04-01T01:36:59;24.9;;;14.1;;
67429;SDS011;54298;52.076;5.264;2023-04-01T01:38:41;26.7;;;14.3;;
67429;SDS011;54298;52.076;5.264;2023-04-01T01:40:19;24.4;;;14.2;;
67429;SDS011;54298;52.076;5.264;2023-04-01T01:41:56;22.2;;;13.1;;
67429;SDS011;54298;52.076;5.264;2023-04-01T01:45:16;23.7;;;14.8;;
67429;SDS011;54298;52.076;5.264;2023-04-01T01:46:57;23.7;;;14.5;;
67429;SDS011;54298;52.076;5.264;2023-04-01T01:48:36;23.1;;;14.0;;
67429;SDS011;54298;52.076;5.264;2023-04-01T01:51:52;18.11;;;12.8;;
67429;SDS011;54298;52.076;5.264;2023-04-01T01:53:28;21.9;;;12.7;;
67429;SDS011;54298;52.076;5.264;2023-04-01T01:55:22;18.61;;;11.5;;
67429;SDS011;54298;52.076;5.264;2023-04-01T01:57:02;17.61;;;10.8;;
67429;SDS011;54298;52.076;5.264;2023-04-01T01:58:42;18.91;;;11.2;;
67429;SDS011;54298;52.076;5.264;2023-04-01T02:01:58;20.41;;;12.0;;
67429;SDS011;54298;52.076;5.264;2023-04-01T02:03:36;18.3;;;11.2;;
67429;SDS011;54298;52.076;5.264;2023-04-01T02:05:15;17.2;;;10.7;;
67429;SDS011;54298;52.076;5.264;2023-04-01T02:08:38;17.8;;;9.9;;
67429;SDS011;54298;52.076;5.264;2023-04-01T02:10:18;16.4;;;10.6;;
67429;SDS011;54298;52.076;5.264;2023-04-01T02:11:59;16.5;;;11.0;;
67429;SDS011;54298;52.076;5.264;2023-04-01T02:13:40;18.91;;;10.9;;
67429;SDS011;54298;52.076;5.264;2023-04-01T02:15:22;19.61;;;11.9;;
67429;SDS011;54298;52.076;5.264;2023-04-01T02:18:44;19.7;;;11.6;;
67429;SDS011;54298;52.076;5.264;2023-04-01T02:20:24;18.5;;;11.8;;
67429;SDS011;54298;52.076;5.264;2023-04-01T02:22:05;20.41;;;12.2;;
67429;SDS011;54298;52.076;5.264;2023-04-01T02:23:46;18.5;;;11.9;;
67429;SDS011;54298;52.076;5.264;2023-04-01T02:27:03;18.5;;;11.4;;
67429;SDS011;54298;52.076;5.264;2023-04-01T02:28:39;19.3;;;11.8;;
67429;SDS011;54298;52.076;5.264;2023-04-01T02:30:19;20.7;;;13.0;;
67429;SDS011;54298;52.076;5.264;2023-04-01T02:33:34;21.5;;;12.8;;
67429;SDS011;54298;52.076;5.264;2023-04-01T02:35:10;20.7;;;13.2;;
67429;SDS011;54298;52.076;5.264;2023-04-01T02:36:49;21.2;;;12.6;;
67429;SDS011;54298;52.076;5.264;2023-04-01T02:38:26;20.9;;;12.6;;
67429;SDS011;54298;52.076;5.264;2023-04-01T02:41:43;21.8;;;12.9;;
67429;SDS011;54298;52.076;5.264;2023-04-01T02:43:20;19.3;;;11.8;;
67429;SDS011;54298;52.076;5.264;2023-04-01T02:44:57;19.91;;;12.1;;
67429;SDS011;54298;52.076;5.264;2023-04-01T02:48:09;19.7;;;11.3;;
67429;SDS011;54298;52.076;5.264;2023-04-01T02:49:45;20.41;;;11.7;;
67429;SDS011;54298;52.076;5.264;2023-04-01T02:51:22;20.6;;;11.9;;
67429;SDS011;54298;52.076;5.264;2023-04-01T02:54:34;23.3;;;13.0;;
67429;SDS011;54298;52.076;5.264;2023-04-01T02:56:11;20.6;;;11.9;;
67429;SDS011;54298;52.076;5.264;2023-04-01T02:57:47;20.2;;;12.3;;
67429;SDS011;54298;52.076;5.264;2023-04-01T02:59:24;17.61;;;10.5;;
67429;SDS011;54298;52.076;5.264;2023-04-01T03:02:36;21.1;;;12.1;;
67429;SDS011;54298;52.076;5.264;2023-04-01T03:04:13;18.41;;;10.3;;
67429;SDS011;54298;52.076;5.264;2023-04-01T03:05:49;17.7;;;9.81;;
67429;SDS011;54298;52.076;5.264;2023-04-01T03:10:37;17.3;;;9.5;;
67429;SDS011;54298;52.076;5.264;2023-04-01T03:12:14;16.61;;;8.71;;
67429;SDS011;54298;52.076;5.264;2023-04-01T03:15:26;15.6;;;8.6;;
67429;SDS011;54298;52.076;5.264;2023-04-01T03:17:02;15.7;;;9.0;;
67429;SDS011;54298;52.076;5.264;2023-04-01T03:18:38;15.6;;;8.0;;
67429;SDS011;54298;52.076;5.264;2023-04-01T03:20:15;14.7;;;8.0;;
67429;SDS011;54298;52.076;5.264;2023-04-01T03:23:27;14.5;;;8.31;;
67429;SDS011;54298;52.076;5.264;2023-04-01T03:25:04;14.7;;;8.6;;
67429;SDS011;54298;52.076;5.264;2023-04-01T03:26:42;14.2;;;9.0;;
67429;SDS011;54298;52.076;5.264;2023-04-01T03:29:54;15.2;;;8.71;;
67429;SDS011;54298;52.076;5.264;2023-04-01T03:31:30;14.1;;;8.2;;
67429;SDS011;54298;52.076;5.264;2023-04-01T03:33:06;14.7;;;8.71;;
67429;SDS011;54298;52.076;5.264;2023-04-01T03:36:19;12.1;;;8.71;;
67429;SDS011;54298;52.076;5.264;2023-04-01T03:37:55;13.8;;;9.31;;
67429;SDS011;54298;52.076;5.264;2023-04-01T03:39:31;13.4;;;8.9;;
67429;SDS011;54298;52.076;5.264;2023-04-01T03:42:47;14.2;;;9.5;;
67429;SDS011;54298;52.076;5.264;2023-04-01T03:44:24;12.0;;;9.0;;
67429;SDS011;54298;52.076;5.264;2023-04-01T03:46:00;16.4;;;10.8;;
67429;SDS011;54298;52.076;5.264;2023-04-01T03:47:37;14.8;;;10.0;;
67429;SDS011;54298;52.076;5.264;2023-04-01T03:50:49;14.5;;;9.71;;
67429;SDS011;54298;52.076;5.264;2023-04-01T03:52:25;13.4;;;10.0;;
67429;SDS011;54298;52.076;5.264;2023-04-01T03:54:01;12.6;;;9.1;;
67429;SDS011;54298;52.076;5.264;2023-04-01T03:57:14;14.2;;;10.3;;
67429;SDS011;54298;52.076;5.264;2023-04-01T03:58:50;13.1;;;9.31;;
67429;SDS011;54298;52.076;5.264;2023-04-01T04:00:27;13.5;;;10.0;;
67429;SDS011;54298;52.076;5.264;2023-04-01T04:02:04;12.9;;;9.0;;
67429;SDS011;54298;52.076;5.264;2023-04-01T04:05:16;12.4;;;9.21;;
67429;SDS011;54298;52.076;5.264;2023-04-01T04:06:52;12.0;;;9.71;;
67429;SDS011;54298;52.076;5.264;2023-04-01T04:08:29;11.6;;;9.0;;
67429;SDS011;54298;52.076;5.264;2023-04-01T04:11:42;12.1;;;9.71;;
67429;SDS011;54298;52.076;5.264;2023-04-01T04:13:18;15.0;;;11.0;;
67429;SDS011;54298;52.076;5.264;2023-04-01T04:14:55;15.1;;;11.9;;
67429;SDS011;54298;52.076;5.264;2023-04-01T04:18:11;16.0;;;11.7;;
67429;SDS011;54298;52.076;5.264;2023-04-01T04:19:47;13.5;;;11.8;;
67429;SDS011;54298;52.076;5.264;2023-04-01T04:21:23;14.1;;;12.6;;
67429;SDS011;54298;52.076;5.264;2023-04-01T04:23:00;14.7;;;12.1;;
67429;SDS011;54298;52.076;5.264;2023-04-01T04:26:13;13.2;;;11.3;;
67429;SDS011;54298;52.076;5.264;2023-04-01T04:27:51;16.2;;;11.7;;
67429;SDS011;54298;52.076;5.264;2023-04-01T04:29:27;15.8;;;12.5;;
67429;SDS011;54298;52.076;5.264;2023-04-01T04:32:40;15.6;;;12.5;;
67429;SDS011;54298;52.076;5.264;2023-04-01T04:34:16;13.9;;;11.2;;
67429;SDS011;54298;52.076;5.264;2023-04-01T04:35:54;15.3;;;11.4;;
67429;SDS011;54298;52.076;5.264;2023-04-01T04:39:08;14.7;;;11.2;;
67429;SDS011;54298;52.076;5.264;2023-04-01T04:40:44;12.8;;;10.9;;
67429;SDS011;54298;52.076;5.264;2023-04-01T04:42:21;13.4;;;9.81;;
67429;SDS011;54298;52.076;5.264;2023-04-01T04:43:57;10.21;;;8.5;;
67429;SDS011;54298;52.076;5.264;2023-04-01T04:47:09;10.6;;;7.9;;
67429;SDS011;54298;52.076;5.264;2023-04-01T04:48:45;11.6;;;8.6;;
67429;SDS011;54298;52.076;5.264;2023-04-01T04:50:22;9.4;;;7.6;;
67429;SDS011;54298;52.076;5.264;2023-04-01T04:53:35;9.31;;;7.8;;
67429;SDS011;54298;52.076;5.264;2023-04-01T04:55:11;10.4;;;9.0;;
67429;SDS011;54298;52.076;5.264;2023-04-01T04:56:48;11.6;;;8.1;;
67429;SDS011;54298;52.076;5.264;2023-04-01T05:00:03;11.0;;;9.4;;
67429;SDS011;54298;52.076;5.264;2023-04-01T05:01:41;11.7;;;10.0;;
67429;SDS011;54298;52.076;5.264;2023-04-01T05:03:17;12.7;;;10.5;;
67429;SDS011;54298;52.076;5.264;2023-04-01T05:04:53;11.2;;;8.4;;
67429;SDS011;54298;52.076;5.264;2023-04-01T05:08:05;11.4;;;9.21;;
67429;SDS011;54298;52.076;5.264;2023-04-01T05:09:41;11.0;;;8.71;;
67429;SDS011;54298;52.076;5.264;2023-04-01T05:11:17;12.8;;;10.4;;
67429;SDS011;54298;52.076;5.264;2023-04-01T05:16:07;11.1;;;9.9;;
67429;SDS011;54298;52.076;5.264;2023-04-01T05:17:44;10.3;;;9.21;;
67429;SDS011;54298;52.076;5.264;2023-04-01T05:20:56;10.6;;;8.71;;
67429;SDS011;54298;52.076;5.264;2023-04-01T05:22:31;10.7;;;9.6;;
67429;SDS011;54298;52.076;5.264;2023-04-01T05:24:08;11.3;;;9.0;;
67429;SDS011;54298;52.076;5.264;2023-04-01T05:27:19;11.6;;;10.21;;
67429;SDS011;54298;52.076;5.264;2023-04-01T05:28:56;11.4;;;10.3;;
67429;SDS011;54298;52.076;5.264;2023-04-01T05:30:31;13.7;;;10.8;;
67429;SDS011;54298;52.076;5.264;2023-04-01T05:32:07;13.1;;;10.7;;
67429;SDS011;54298;52.076;5.264;2023-04-01T05:35:19;14.8;;;12.4;;
67429;SDS011;54298;52.076;5.264;2023-04-01T05:36:55;14.7;;;13.1;;
67429;SDS011;54298;52.076;5.264;2023-04-01T05:38:31;14.6;;;13.0;;
67429;SDS011;54298;52.076;5.264;2023-04-01T05:41:45;14.5;;;13.0;;
67429;SDS011;54298;52.076;5.264;2023-04-01T05:43:21;15.8;;;14.2;;
67429;SDS011;54298;52.076;5.264;2023-04-01T05:44:57;15.1;;;13.4;;
67429;SDS011;54298;52.076;5.264;2023-04-01T05:48:09;15.2;;;12.7;;
67429;SDS011;54298;52.076;5.264;2023-04-01T05:49:45;20.0;;;15.3;;
67429;SDS011;54298;52.076;5.264;2023-04-01T05:51:22;17.0;;;13.8;;
67429;SDS011;54298;52.076;5.264;2023-04-01T05:52:58;15.3;;;13.7;;
67429;SDS011;54298;52.076;5.264;2023-04-01T05:56:11;17.11;;;15.3;;
67429;SDS011;54298;52.076;5.264;2023-04-01T05:57:47;17.3;;;14.8;;
67429;SDS011;54298;52.076;5.264;2023-04-01T05:59:23;17.41;;;14.9;;
67429;SDS011;54298;52.076;5.264;2023-04-01T06:02:37;18.7;;;16.7;;
67429;SDS011;54298;52.076;5.264;2023-04-01T06:04:14;16.9;;;15.2;;
67429;SDS011;54298;52.076;5.264;2023-04-01T06:05:51;15.8;;;14.1;;
67429;SDS011;54298;52.076;5.264;2023-04-01T06:09:10;16.9;;;13.5;;
67429;SDS011;54298;52.076;5.264;2023-04-01T06:10:53;17.41;;;15.6;;
67429;SDS011;54298;52.076;5.264;2023-04-01T06:12:40;17.5;;;15.7;;
67429;SDS011;54298;52.076;5.264;2023-04-01T06:14:39;17.3;;;15.5;;
67429;SDS011;54298;52.076;5.264;2023-04-01T06:16:29;17.3;;;15.5;;
67429;SDS011;54298;52.076;5.264;2023-04-01T06:19:17;18.5;;;16.61;;
67429;SDS011;54298;52.076;5.264;2023-04-01T06:21:04;19.3;;;17.2;;
67429;SDS011;54298;52.076;5.264;2023-04-01T06:23:05;17.11;;;14.4;;
67429;SDS011;54298;52.076;5.264;2023-04-01T06:25:18;18.91;;;16.7;;
67429;SDS011;54298;52.076;5.264;2023-04-01T06:27:07;19.7;;;15.7;;
67429;SDS011;54298;52.076;5.264;2023-04-01T06:29:00;16.2;;;14.4;;
67429;SDS011;54298;52.076;5.264;2023-04-01T06:31:09;19.7;;;17.61;;
67429;SDS011;54298;52.076;5.264;2023-04-01T06:32:59;14.1;;;12.6;;
67429;SDS011;54298;52.076;5.264;2023-04-01T06:35:45;114.0;;;77.2;;
67429;SDS011;54298;52.076;5.264;2023-04-01T06:38:04;70.2;;;47.7;;
67429;SDS011;54298;52.076;5.264;2023-04-01T06:41:11;15.5;;;13.1;;
67429;SDS011;54298;52.076;5.264;2023-04-01T06:44:14;15.5;;;14.0;;
67429;SDS011;54298;52.076;5.264;2023-04-01T06:46:00;14.2;;;12.7;;
67429;SDS011;54298;52.076;5.264;2023-04-01T06:47:48;11.7;;;10.3;;
67429;SDS011;54298;52.076;5.264;2023-04-01T06:49:41;14.5;;;12.4;;
67429;SDS011;54298;52.076;5.264;2023-04-01T06:53:21;14.5;;;11.8;;
67429;SDS011;54298;52.076;5.264;2023-04-01T06:55:14;14.9;;;12.6;;
67429;SDS011;54298;52.076;5.264;2023-04-01T06:57:03;13.6;;;11.2;;
67429;SDS011;54298;52.076;5.264;2023-04-01T06:58:56;10.6;;;9.6;;
67429;SDS011;54298;52.076;5.264;2023-04-01T07:00:39;13.2;;;9.71;;
67429;SDS011;54298;52.076;5.264;2023-04-01T07:02:22;13.3;;;10.9;;
67429;SDS011;54298;52.076;5.264;2023-04-01T07:04:06;11.8;;;9.71;;
67429;SDS011;54298;52.076;5.264;2023-04-01T07:07:28;10.7;;;8.9;;
67429;SDS011;54298;52.076;5.264;2023-04-01T07:09:11;14.9;;;10.4;;
67429;SDS011;54298;52.076;5.264;2023-04-01T07:10:53;10.21;;;9.0;;
67429;SDS011;54298;52.076;5.264;2023-04-01T07:12:36;12.2;;;9.6;;
67429;SDS011;54298;52.076;5.264;2023-04-01T07:16:05;14.7;;;11.5;;
67429;SDS011;54298;52.076;5.264;2023-04-01T07:17:51;11.5;;;10.3;;
67429;SDS011;54298;52.076;5.264;2023-04-01T07:19:32;10.6;;;8.2;;
67429;SDS011;54298;52.076;5.264;2023-04-01T07:21:20;10.6;;;8.6;;
67429;SDS011;54298;52.076;5.264;2023-04-01T07:23:02;11.4;;;9.81;;
67429;SDS011;54298;52.076;5.264;2023-04-01T07:26:21;12.0;;;9.5;;
67429;SDS011;54298;52.076;5.264;2023-04-01T07:28:00;14.8;;;11.4;;
67429;SDS011;54298;52.076;5.264;2023-04-01T07:29:39;13.5;;;10.6;;
67429;SDS011;54298;52.076;5.264;2023-04-01T07:31:19;14.7;;;11.5;;
67429;SDS011;54298;52.076;5.264;2023-04-01T07:34:55;13.7;;;10.7;;
67429;SDS011;54298;52.076;5.264;2023-04-01T07:36:48;15.4;;;12.6;;
67429;SDS011;54298;52.076;5.264;2023-04-01T07:38:36;13.4;;;12.0;;
67429;SDS011;54298;52.076;5.264;2023-04-01T07:40:26;14.8;;;11.7;;
67429;SDS011;54298;52.076;5.264;2023-04-01T07:42:15;17.0;;;13.2;;
67429;SDS011;54298;52.076;5.264;2023-04-01T07:44:02;15.9;;;13.5;;
67429;SDS011;54298;52.076;5.264;2023-04-01T07:47:41;16.9;;;12.8;;
67429;SDS011;54298;52.076;5.264;2023-04-01T07:49:34;17.0;;;13.4;;
67429;SDS011;54298;52.076;5.264;2023-04-01T07:51:21;15.9;;;12.9;;
67429;SDS011;54298;52.076;5.264;2023-04-01T07:53:06;15.7;;;12.4;;
67429;SDS011;54298;52.076;5.264;2023-04-01T07:54:53;17.11;;;14.0;;
67429;SDS011;54298;52.076;5.264;2023-04-01T07:56:38;14.7;;;11.7;;
67429;SDS011;54298;52.076;5.264;2023-04-01T08:00:11;15.6;;;13.3;;
67429;SDS011;54298;52.076;5.264;2023-04-01T08:01:55;16.4;;;12.5;;
67429;SDS011;54298;52.076;5.264;2023-04-01T08:03:51;17.2;;;13.4;;
67429;SDS011;54298;52.076;5.264;2023-04-01T08:05:49;17.2;;;13.9;;
67429;SDS011;54298;52.076;5.264;2023-04-01T08:07:33;14.5;;;13.0;;
67429;SDS011;54298;52.076;5.264;2023-04-01T08:09:18;17.41;;;13.5;;
67429;SDS011;54298;52.076;5.264;2023-04-01T08:11:07;19.61;;;15.1;;
67429;SDS011;54298;52.076;5.264;2023-04-01T08:14:48;16.0;;;12.8;;
67429;SDS011;54298;52.076;5.264;2023-04-01T08:16:32;16.9;;;12.2;;
67429;SDS011;54298;52.076;5.264;2023-04-01T08:18:19;18.2;;;14.3;;
67429;SDS011;54298;52.076;5.264;2023-04-01T08:20:11;16.11;;;13.1;;
67429;SDS011;54298;52.076;5.264;2023-04-01T08:21:57;19.5;;;13.7;;
67429;SDS011;54298;52.076;5.264;2023-04-01T08:23:40;19.5;;;14.7;;
67429;SDS011;54298;52.076;5.264;2023-04-01T08:27:01;19.8;;;14.6;;
67429;SDS011;54298;52.076;5.264;2023-04-01T08:28:46;19.2;;;15.6;;
67429;SDS011;54298;52.076;5.264;2023-04-01T08:30:30;19.11;;;15.8;;
67429;SDS011;54298;52.076;5.264;2023-04-01T08:32:17;26.8;;;19.8;;
67429;SDS011;54298;52.076;5.264;2023-04-01T08:35:40;20.0;;;16.2;;
67429;SDS011;54298;52.076;5.264;2023-04-01T08:37:25;20.11;;;16.11;;
67429;SDS011;54298;52.076;5.264;2023-04-01T08:39:09;20.8;;;14.4;;
67429;SDS011;54298;52.076;5.264;2023-04-01T08:44:51;20.3;;;15.7;;
67429;SDS011;54298;52.076;5.264;2023-04-01T08:48:35;26.2;;;19.2;;
67429;SDS011;54298;52.076;5.264;2023-04-01T08:51:19;17.7;;;13.2;;
67429;SDS011;54298;52.076;5.264;2023-04-01T08:54:16;20.41;;;15.4;;
67429;SDS011;54298;52.076;5.264;2023-04-01T08:57:25;24.4;;;17.8;;
67429;SDS011;54298;52.076;5.264;2023-04-01T08:59:24;24.4;;;17.41;;
67429;SDS011;54298;52.076;5.264;2023-04-01T09:01:32;22.1;;;16.9;;
67429;SDS011;54298;52.076;5.264;2023-04-01T09:04:39;24.1;;;18.7;;
67429;SDS011;54298;52.076;5.264;2023-04-01T09:06:37;23.9;;;18.91;;
67429;SDS011;54298;52.076;5.264;2023-04-01T09:08:30;22.6;;;16.8;;
67429;SDS011;54298;52.076;5.264;2023-04-01T09:10:24;25.3;;;18.0;;
67429;SDS011;54298;52.076;5.264;2023-04-01T09:13:05;30.2;;;20.41;;
67429;SDS011;54298;52.076;5.264;2023-04-01T09:15:30;27.0;;;18.7;;
67429;SDS011;54298;52.076;5.264;2023-04-01T09:18:48;27.4;;;21.1;;
67429;SDS011;54298;52.076;5.264;2023-04-01T09:21:41;26.0;;;18.2;;
67429;SDS011;54298;52.076;5.264;2023-04-01T09:23:48;25.1;;;20.11;;
67429;SDS011;54298;52.076;5.264;2023-04-01T09:26:13;28.3;;;19.3;;
67429;SDS011;54298;52.076;5.264;2023-04-01T09:28:06;26.1;;;18.8;;
67429;SDS011;54298;52.076;5.264;2023-04-01T09:30:00;25.2;;;17.91;;
67429;SDS011;54298;52.076;5.264;2023-04-01T09:32:23;26.5;;;17.11;;
67429;SDS011;54298;52.076;5.264;2023-04-01T09:36:02;23.7;;;17.3;;
67429;SDS011;54298;52.076;5.264;2023-04-01T09:37:47;24.3;;;17.3;;
67429;SDS011;54298;52.076;5.264;2023-04-01T09:39:34;23.3;;;18.41;;
67429;SDS011;54298;52.076;5.264;2023-04-01T09:41:20;25.3;;;18.7;;
67429;SDS011;54298;52.076;5.264;2023-04-01T09:43:12;23.7;;;17.5;;
67429;SDS011;54298;52.076;5.264;2023-04-01T09:46:56;21.6;;;17.11;;
67429;SDS011;54298;52.076;5.264;2023-04-01T09:48:51;21.0;;;16.0;;
67429;SDS011;54298;52.076;5.264;2023-04-01T09:52:18;24.0;;;18.2;;
67429;SDS011;54298;52.076;5.264;2023-04-01T09:54:08;20.6;;;16.7;;
67429;SDS011;54298;52.076;5.264;2023-04-01T09:56:03;16.2;;;12.6;;
67429;SDS011;54298;52.076;5.264;2023-04-01T09:59:15;17.7;;;13.2;;
67429;SDS011;54298;52.076;5.264;2023-04-01T10:01:22;15.0;;;13.4;;
67429;SDS011;54298;52.076;5.264;2023-04-01T10:05:12;13.8;;;11.8;;
67429;SDS011;54298;52.076;5.264;2023-04-01T10:16:47;13.8;;;11.3;;
67429;SDS011;54298;52.076;5.264;2023-04-01T10:20:25;13.9;;;11.7;;
67429;SDS011;54298;52.076;5.264;2023-04-01T10:26:10;8.71;;;7.0;;
67429;SDS011;54298;52.076;5.264;2023-04-01T10:29:35;8.31;;;6.5;;
67429;SDS011;54298;52.076;5.264;2023-04-01T10:32:50;6.3;;;4.7;;
67429;SDS011;54298;52.076;5.264;2023-04-01T10:38:44;7.2;;;5.4;;
67429;SDS011;54298;52.076;5.264;2023-04-01T10:45:24;9.9;;;6.7;;
67429;SDS011;54298;52.076;5.264;2023-04-01T10:49:02;8.71;;;7.4;;
67429;SDS011;54298;52.076;5.264;2023-04-01T10:52:47;10.0;;;8.5;;
67429;SDS011;54298;52.076;5.264;2023-04-01T10:55:59;12.3;;;10.8;;
67429;SDS011;54298;52.076;5.264;2023-04-01T10:59:03;10.4;;;9.31;;
67429;SDS011;54298;52.076;5.264;2023-04-01T11:06:19;10.9;;;9.71;;
67429;SDS011;54298;52.076;5.264;2023-04-01T11:10:59;9.1;;;8.0;;
67429;SDS011;54298;52.076;5.264;2023-04-01T11:12:17;10.8;;;8.0;;
67429;SDS011;54298;52.076;5.264;2023-04-01T11:13:19;11.1;;;9.9;;
67429;SDS011;54298;52.076;5.264;2023-04-01T11:14:20;11.1;;;9.9;;
67429;SDS011;54298;52.076;5.264;2023-04-01T11:18:18;10.6;;;8.6;;
67429;SDS011;54298;52.076;5.264;2023-04-01T11:19:34;10.6;;;8.6;;
67429;SDS011;54298;52.076;5.264;2023-04-01T11:20:19;9.9;;;8.1;;
67429;SDS011;54298;52.076;5.264;2023-04-01T11:21:26;9.9;;;8.1;;
67429;SDS011;54298;52.076;5.264;2023-04-01T11:23:19;10.21;;;9.21;;
67429;SDS011;54298;52.076;5.264;2023-04-01T11:25:34;9.9;;;8.1;;
67429;SDS011;54298;52.076;5.264;2023-04-01T11:27:53;10.9;;;9.6;;
67429;SDS011;54298;52.076;5.264;2023-04-01T11:30:16;9.0;;;8.1;;
67429;SDS011;54298;52.076;5.264;2023-04-01T11:32:05;10.21;;;8.4;;
67429;SDS011;54298;52.076;5.264;2023-04-01T11:33:55;9.0;;;6.6;;
67429;SDS011;54298;52.076;5.264;2023-04-01T11:38:04;6.2;;;5.6;;
67429;SDS011;54298;52.076;5.264;2023-04-01T11:39:57;6.0;;;4.5;;
67429;SDS011;54298;52.076;5.264;2023-04-01T11:41:45;5.6;;;4.7;;
67429;SDS011;54298;52.076;5.264;2023-04-01T11:43:29;5.4;;;4.1;;
67429;SDS011;54298;52.076;5.264;2023-04-01T11:45:19;5.7;;;4.41;;
67429;SDS011;54298;52.076;5.264;2023-04-01T11:47:12;58.8;;;38.81;;
67429;SDS011;54298;52.076;5.264;2023-04-01T11:49:36;26.7;;;16.0;;
67429;SDS011;54298;52.076;5.264;2023-04-01T11:51:32;98.6;;;67.91;;
67429;SDS011;54298;52.076;5.264;2023-04-01T11:54:03;91.3;;;58.5;;
67429;SDS011;54298;52.076;5.264;2023-04-01T11:55:54;36.1;;;24.0;;
67429;SDS011;54298;52.076;5.264;2023-04-01T11:57:50;7.3;;;5.3;;
67429;SDS011;54298;52.076;5.264;2023-04-01T11:59:51;5.0;;;3.9;;
67429;SDS011;54298;52.076;5.264;2023-04-01T12:01:42;4.5;;;4.1;;
67429;SDS011;54298;52.076;5.264;2023-04-01T12:03:36;4.1;;;3.7;;
67429;SDS011;54298;52.076;5.264;2023-04-01T12:06:00;5.5;;;4.0;;
67429;SDS011;54298;52.076;5.264;2023-04-01T12:07:50;5.4;;;4.3;;
67429;SDS011;54298;52.076;5.264;2023-04-01T12:09:39;6.2;;;4.7;;
67429;SDS011;54298;52.076;5.264;2023-04-01T12:13:14;5.2;;;4.41;;
67429;SDS011;54298;52.076;5.264;2023-04-01T12:15:03;6.5;;;5.2;;
67429;SDS011;54298;52.076;5.264;2023-04-01T12:16:56;6.2;;;5.4;;
67429;SDS011;54298;52.076;5.264;2023-04-01T12:18:40;5.9;;;5.11;;
67429;SDS011;54298;52.076;5.264;2023-04-01T12:22:19;6.3;;;5.4;;
67429;SDS011;54298;52.076;5.264;2023-04-01T12:24:35;6.3;;;5.7;;
67429;SDS011;54298;52.076;5.264;2023-04-01T12:26:41;5.6;;;5.11;;
67429;SDS011;54298;52.076;5.264;2023-04-01T12:29:07;6.5;;;5.9;;
67429;SDS011;54298;52.076;5.264;2023-04-01T12:31:01;7.0;;;6.3;;
67429;SDS011;54298;52.076;5.264;2023-04-01T12:32:53;8.5;;;7.8;;
67429;SDS011;54298;52.076;5.264;2023-04-01T12:34:44;8.1;;;7.3;;
67429;SDS011;54298;52.076;5.264;2023-04-01T12:38:30;7.9;;;7.2;;
67429;SDS011;54298;52.076;5.264;2023-04-01T12:41:21;8.2;;;7.2;;
67429;SDS011;54298;52.076;5.264;2023-04-01T12:43:10;8.2;;;7.1;;
67429;SDS011;54298;52.076;5.264;2023-04-01T12:45:13;9.31;;;8.4;;
67429;SDS011;54298;52.076;5.264;2023-04-01T12:47:33;9.0;;;7.6;;
67429;SDS011;54298;52.076;5.264;2023-04-01T12:51:09;7.7;;;7.0;;
67429;SDS011;54298;52.076;5.264;2023-04-01T12:54:08;5.4;;;4.91;;
67429;SDS011;54298;52.076;5.264;2023-04-01T12:57:53;6.7;;;5.4;;
67429;SDS011;54298;52.076;5.264;2023-04-01T13:02:00;6.5;;;4.91;;
67429;SDS011;54298;52.076;5.264;2023-04-01T13:03:47;6.9;;;6.0;;
67429;SDS011;54298;52.076;5.264;2023-04-01T13:06:40;8.2;;;7.1;;
67429;SDS011;54298;52.076;5.264;2023-04-01T13:09:22;10.1;;;8.5;;
67429;SDS011;54298;52.076;5.264;2023-04-01T13:11:09;11.0;;;9.81;;
67429;SDS011;54298;52.076;5.264;2023-04-01T13:13:00;10.5;;;9.4;;
67429;SDS011;54298;52.076;5.264;2023-04-01T13:15:28;12.2;;;10.9;;
67429;SDS011;54298;52.076;5.264;2023-04-01T13:17:13;12.4;;;11.1;;
67429;SDS011;54298;52.076;5.264;2023-04-01T13:18:59;13.7;;;12.4;;
67429;SDS011;54298;52.076;5.264;2023-04-01T13:20:43;13.7;;;12.2;;
67429;SDS011;54298;52.076;5.264;2023-04-01T13:24:25;14.1;;;12.6;;
67429;SDS011;54298;52.076;5.264;2023-04-01T13:26:15;13.1;;;11.8;;
67429;SDS011;54298;52.076;5.264;2023-04-01T13:28:00;13.4;;;12.0;;
67429;SDS011;54298;52.076;5.264;2023-04-01T13:29:45;13.8;;;12.4;;
67429;SDS011;54298;52.076;5.264;2023-04-01T13:31:50;14.3;;;12.9;;
67429;SDS011;54298;52.076;5.264;2023-04-01T13:33:42;12.0;;;10.8;;
67429;SDS011;54298;52.076;5.264;2023-04-01T13:35:29;12.7;;;11.4;;
67429;SDS011;54298;52.076;5.264;2023-04-01T13:39:13;13.9;;;11.1;;
67429;SDS011;54298;52.076;5.264;2023-04-01T13:41:10;12.4;;;11.1;;
67429;SDS011;54298;52.076;5.264;2023-04-01T13:42:58;10.7;;;9.4;;
67429;SDS011;54298;52.076;5.264;2023-04-01T13:44:40;8.71;;;7.9;;
67429;SDS011;54298;52.076;5.264;2023-04-01T13:46:40;8.2;;;7.4;;
67429;SDS011;54298;52.076;5.264;2023-04-01T13:50:14;7.4;;;6.7;;